Time;durP1;ratioP1;P1;durP2;ratioP2;P2;SDS_P1;SDS_P2;PMS_P1;PMS_P2;Temp;Humidity;BMP_temperature;BMP_pressure;BME280_temperature;BME280_humidity;BME280_pressure;Samples;Min_cycle;Max_cycle;Signal;HPM_P1;HPM_P2
2023/09/29 00:02:03;;;;;;;17.70;6.93;;;;;;;;;;5075766;28;20044;-81
2023/09/29 00:04:29;;;;;;;18.40;6.47;;;;;;;;;;5075987;28;20060;-81
2023/09/29 00:06:55;;;;;;;18.30;6.55;;;;;;;;;;5059054;28;20055;-81
2023/09/29 00:09:22;;;;;;;22.50;6.63;;;;;;;;;;5075968;28;20476;-81
2023/09/29 00:11:48;;;;;;;14.55;5.82;;;;;;;;;;5075680;28;20369;-81
2023/09/29 00:14:14;;;;;;;16.58;6.13;;;;;;;;;;5076308;28;20101;-81
2023/09/29 00:16:40;;;;;;;15.90;5.97;;;;;;;;;;5093536;28;20040;-81
2023/09/29 00:19:07;;;;;;;16.05;6.18;;;;;;;;;;5075394;28;20052;-81
2023/09/29 00:21:33;;;;;;;12.95;5.70;;;;;;;;;;5075391;28;20043;-80
2023/09/29 00:23:59;;;;;;;19.50;6.38;;;;;;;;;;5075600;28;20134;-81
2023/09/29 00:26:25;;;;;;;14.98;6.22;;;;;;;;;;5075864;28;20052;-81
2023/09/29 00:28:51;;;;;;;16.98;6.57;;;;;;;;;;5075548;28;20182;-81
2023/09/29 00:31:17;;;;;;;16.88;6.07;;;;;;;;;;5075752;28;20055;-81
2023/09/29 00:33:43;;;;;;;16.20;6.63;;;;;;;;;;5059007;28;20043;-81
2023/09/29 00:36:12;;;;;;;21.98;7.05;;;;;;;;;;5077701;28;20047;-81
2023/09/29 00:38:38;;;;;;;16.17;6.50;;;;;;;;;;5078807;28;20047;-80
2023/09/29 00:41:05;;;;;;;18.13;7.60;;;;;;;;;;5079204;28;20039;-81
2023/09/29 00:43:32;;;;;;;17.60;7.43;;;;;;;;;;5097584;28;20048;-81
2023/09/29 00:46:00;;;;;;;20.13;7.70;;;;;;;;;;5079898;28;20376;-81
2023/09/29 00:48:29;;;;;;;21.80;7.95;;;;;;;;;;5078986;28;20131;-81
2023/09/29 00:50:56;;;;;;;15.00;7.13;;;;;;;;;;5078926;28;20044;-81
2023/09/29 00:53:23;;;;;;;15.75;7.22;;;;;;;;;;5079646;28;20505;-81
2023/09/29 00:55:49;;;;;;;15.05;7.10;;;;;;;;;;5097382;28;20055;-81
2023/09/29 00:58:17;;;;;;;19.20;7.50;;;;;;;;;;5078776;28;20055;-81
2023/09/29 01:00:45;;;;;;;13.52;6.63;;;;;;;;;;5078591;28;20500;-81
2023/09/29 01:03:14;;;;;;;20.23;7.22;;;;;;;;;;5078738;28;20086;-81
2023/09/29 01:05:44;;;;;;;16.60;7.03;;;;;;;;;;5078799;28;20138;-80
2023/09/29 01:08:16;;;;;;;15.68;8.40;;;;;;;;;;5079571;28;20051;-81
2023/09/29 01:10:44;;;;;;;18.13;9.02;;;;;;;;;;5078631;28;20535;-81
2023/09/29 01:13:10;;;;;;;17.67;8.25;;;;;;;;;;5078624;28;20059;-81
2023/09/29 01:15:39;;;;;;;19.13;8.70;;;;;;;;;;5079109;28;20063;-81
2023/09/29 01:18:06;;;;;;;15.88;8.25;;;;;;;;;;5078749;28;20460;-80
2023/09/29 01:20:34;;;;;;;14.77;8.02;;;;;;;;;;5078153;28;20052;-81
2023/09/29 01:23:01;;;;;;;15.38;7.55;;;;;;;;;;5078254;28;20404;-81
2023/09/29 01:25:27;;;;;;;19.08;8.50;;;;;;;;;;5079244;28;20410;-81
2023/09/29 01:27:56;;;;;;;23.27;8.15;;;;;;;;;;5096089;28;20050;-81
2023/09/29 01:30:24;;;;;;;17.15;8.00;;;;;;;;;;5062399;28;20040;-81
2023/09/29 01:32:52;;;;;;;14.80;7.85;;;;;;;;;;5078225;28;20040;-81
2023/09/29 01:35:23;;;;;;;16.58;7.90;;;;;;;;;;5078031;28;20094;-80
2023/09/29 01:37:50;;;;;;;17.17;8.60;;;;;;;;;;5078299;28;20121;-81
2023/09/29 01:40:16;;;;;;;18.52;8.43;;;;;;;;;;5078103;28;20094;-81
2023/09/29 01:42:43;;;;;;;16.05;8.32;;;;;;;;;;5078868;28;20071;-81
2023/09/29 01:45:11;;;;;;;17.17;8.30;;;;;;;;;;5062392;28;20537;-81
2023/09/29 01:47:38;;;;;;;16.00;8.80;;;;;;;;;;5078528;28;20052;-81
2023/09/29 01:50:04;;;;;;;14.93;8.45;;;;;;;;;;5077972;28;20476;-81
2023/09/29 01:52:31;;;;;;;18.15;9.10;;;;;;;;;;5078107;28;20088;-81
2023/09/29 01:54:58;;;;;;;19.55;8.85;;;;;;;;;;5077586;28;20039;-81
2023/09/29 01:57:25;;;;;;;20.42;9.75;;;;;;;;;;5061321;28;20048;-81
2023/09/29 01:59:51;;;;;;;16.23;9.15;;;;;;;;;;5061148;28;20164;-81
2023/09/29 02:02:17;;;;;;;17.83;9.88;;;;;;;;;;5077728;28;20217;-81
2023/09/29 02:04:43;;;;;;;20.75;10.05;;;;;;;;;;5077687;28;20056;-81
2023/09/29 02:07:09;;;;;;;21.13;10.70;;;;;;;;;;5077511;28;20052;-81
2023/09/29 02:09:36;;;;;;;22.25;11.63;;;;;;;;;;5077460;28;20048;-81
2023/09/29 02:12:02;;;;;;;19.80;10.90;;;;;;;;;;5077434;28;20044;-81
2023/09/29 02:14:29;;;;;;;17.67;10.57;;;;;;;;;;5077847;28;20404;-81
2023/09/29 02:16:55;;;;;;;15.95;10.55;;;;;;;;;;5077355;28;20062;-81
2023/09/29 02:19:21;;;;;;;17.73;10.98;;;;;;;;;;5088160;28;20436;-81
2023/09/29 02:21:47;;;;;;;23.23;11.77;;;;;;;;;;5057596;28;20045;-81
2023/09/29 02:24:13;;;;;;;16.95;11.05;;;;;;;;;;5057297;28;20117;-81
2023/09/29 02:26:41;;;;;;;19.30;10.98;;;;;;;;;;5057139;28;20055;-81
2023/09/29 02:29:10;;;;;;;20.67;10.38;;;;;;;;;;5040524;28;20040;-81
2023/09/29 02:31:36;;;;;;;19.17;11.40;;;;;;;;;;5057424;28;20380;-81
2023/09/29 02:34:03;;;;;;;20.52;10.90;;;;;;;;;;5056940;28;20049;-82
2023/09/29 02:36:29;;;;;;;22.70;12.35;;;;;;;;;;5056970;28;20044;-81
2023/09/29 02:38:55;;;;;;;16.85;11.43;;;;;;;;;;5074566;28;20127;-81
2023/09/29 02:41:21;;;;;;;18.67;11.00;;;;;;;;;;5056664;28;20398;-81
2023/09/29 02:43:47;;;;;;;17.30;10.95;;;;;;;;;;5040353;28;20052;-81
2023/09/29 02:46:14;;;;;;;20.05;12.02;;;;;;;;;;5056851;28;20044;-81
2023/09/29 02:48:41;;;;;;;23.08;13.13;;;;;;;;;;5040317;28;20507;-81
2023/09/29 02:51:17;;;;;;;21.45;12.35;;;;;;;;;;5056423;28;20485;-81
2023/09/29 02:53:43;;;;;;;19.65;12.85;;;;;;;;;;5074799;28;20051;-81
2023/09/29 02:56:12;;;;;;;20.52;12.50;;;;;;;;;;5040039;28;20053;-81
2023/09/29 02:58:39;;;;;;;26.13;13.50;;;;;;;;;;5055859;28;20480;-81
2023/09/29 03:01:12;;;;;;;22.58;13.95;;;;;;;;;;5040960;28;20076;-81
2023/09/29 03:03:45;;;;;;;22.42;13.43;;;;;;;;;;5056212;28;20098;-82
2023/09/29 03:06:18;;;;;;;22.45;13.50;;;;;;;;;;5056743;28;20061;-81
2023/09/29 03:08:44;;;;;;;22.40;13.82;;;;;;;;;;5056105;28;20112;-81
2023/09/29 03:11:12;;;;;;;21.67;13.85;;;;;;;;;;5057270;28;20053;-81
2023/09/29 03:13:40;;;;;;;26.98;14.45;;;;;;;;;;5056562;28;20052;-81
2023/09/29 03:16:07;;;;;;;25.20;14.43;;;;;;;;;;5056397;28;20489;-81
2023/09/29 03:18:37;;;;;;;22.42;14.25;;;;;;;;;;5056138;28;20056;-81
2023/09/29 03:21:09;;;;;;;21.95;14.15;;;;;;;;;;5057169;28;20478;-81
2023/09/29 03:23:36;;;;;;;20.25;14.00;;;;;;;;;;5057097;28;20045;-80
2023/09/29 03:26:05;;;;;;;30.58;16.05;;;;;;;;;;5056949;28;20045;-79
2023/09/29 03:28:34;;;;;;;23.17;14.50;;;;;;;;;;5073760;28;20098;-80
2023/09/29 03:31:02;;;;;;;19.65;15.02;;;;;;;;;;5056079;28;20105;-80
2023/09/29 03:33:29;;;;;;;21.42;15.25;;;;;;;;;;5055983;28;20048;-80
2023/09/29 03:35:56;;;;;;;20.45;13.80;;;;;;;;;;5056116;28;20519;-80
2023/09/29 03:38:24;;;;;;;21.10;16.00;;;;;;;;;;5055705;28;20488;-80
2023/09/29 03:40:52;;;;;;;19.77;14.43;;;;;;;;;;5056256;28;20056;-80
2023/09/29 03:43:18;;;;;;;24.77;15.50;;;;;;;;;;5056253;28;20385;-79
2023/09/29 03:45:46;;;;;;;23.50;15.77;;;;;;;;;;5039352;28;20054;-80
2023/09/29 03:48:15;;;;;;;22.40;15.98;;;;;;;;;;5055946;28;20185;-80
2023/09/29 03:50:41;;;;;;;21.35;14.80;;;;;;;;;;5073650;28;20101;-79
2023/09/29 03:53:08;;;;;;;18.52;15.07;;;;;;;;;;5055800;28;20040;-80
2023/09/29 03:55:34;;;;;;;22.70;15.30;;;;;;;;;;5055415;28;20479;-80
2023/09/29 03:58:00;;;;;;;19.23;14.30;;;;;;;;;;5039179;28;20048;-80
2023/09/29 04:00:26;;;;;;;26.75;14.15;;;;;;;;;;5055755;28;20043;-80
2023/09/29 04:02:53;;;;;;;18.50;13.18;;;;;;;;;;5055734;28;20048;-80
2023/09/29 04:05:19;;;;;;;19.50;13.32;;;;;;;;;;5056494;28;20360;-80
2023/09/29 04:07:45;;;;;;;20.25;14.55;;;;;;;;;;5055584;28;20071;-80
2023/09/29 04:10:12;;;;;;;20.00;12.95;;;;;;;;;;5058519;28;20044;-80
2023/09/29 04:12:40;;;;;;;20.90;13.23;;;;;;;;;;5077380;28;20041;-80
2023/09/29 04:15:07;;;;;;;20.27;13.48;;;;;;;;;;5078083;28;20167;-80
2023/09/29 04:17:33;;;;;;;21.25;13.15;;;;;;;;;;5059679;28;20048;-80
2023/09/29 04:19:59;;;;;;;18.02;12.15;;;;;;;;;;5079052;28;20208;-79
2023/09/29 04:22:26;;;;;;;15.40;10.85;;;;;;;;;;5043879;28;20048;-79
2023/09/29 04:24:52;;;;;;;21.88;10.93;;;;;;;;;;5043365;28;20484;-79
2023/09/29 04:27:18;;;;;;;15.68;10.70;;;;;;;;;;5042757;28;20079;-80
2023/09/29 04:29:45;;;;;;;16.75;9.93;;;;;;;;;;5060202;28;20056;-79
2023/09/29 04:32:11;;;;;;;14.65;9.68;;;;;;;;;;5042473;28;20048;-80
2023/09/29 04:34:37;;;;;;;16.58;9.68;;;;;;;;;;5076666;28;20044;-80
2023/09/29 04:37:03;;;;;;;13.32;9.38;;;;;;;;;;5059453;28;20051;-80
2023/09/29 04:39:29;;;;;;;11.23;9.30;;;;;;;;;;5059255;28;20074;-79
2023/09/29 04:41:55;;;;;;;16.35;9.43;;;;;;;;;;5059092;28;20074;-80
2023/09/29 04:44:21;;;;;;;12.95;8.50;;;;;;;;;;5042742;28;20449;-79
2023/09/29 04:46:47;;;;;;;14.57;8.07;;;;;;;;;;5077148;28;20139;-79
2023/09/29 04:49:13;;;;;;;16.40;8.50;;;;;;;;;;5058958;28;20087;-79
2023/09/29 04:51:39;;;;;;;12.55;8.20;;;;;;;;;;5058993;28;20614;-79
2023/09/29 04:54:06;;;;;;;14.95;7.38;;;;;;;;;;5058519;28;20127;-80
2023/09/29 04:56:32;;;;;;;13.13;7.25;;;;;;;;;;5076589;28;20485;-79
2023/09/29 04:58:58;;;;;;;14.32;7.35;;;;;;;;;;5042045;28;20044;-80
2023/09/29 05:01:26;;;;;;;12.00;7.07;;;;;;;;;;5058730;28;20080;-80
2023/09/29 05:03:52;;;;;;;15.02;7.35;;;;;;;;;;5042067;28;20055;-79
2023/09/29 05:06:18;;;;;;;11.77;6.45;;;;;;;;;;5059501;28;20115;-79
2023/09/29 05:08:44;;;;;;;12.13;6.57;;;;;;;;;;5058531;28;20186;-80
2023/09/29 05:11:24;;;;;;;16.02;7.60;;;;;;;;;;5058678;28;20094;-79
2023/09/29 05:13:51;;;;;;;11.80;6.45;;;;;;;;;;5059190;28;20044;-79
2023/09/29 05:16:17;;;;;;;11.25;7.28;;;;;;;;;;5076143;28;20500;-79
2023/09/29 05:18:43;;;;;;;9.55;7.15;;;;;;;;;;5058662;28;20113;-78
2023/09/29 05:21:10;;;;;;;15.50;7.35;;;;;;;;;;5077191;28;20052;-79
2023/09/29 05:23:39;;;;;;;9.55;6.65;;;;;;;;;;5078390;28;20101;-79
2023/09/29 05:26:07;;;;;;;10.32;6.32;;;;;;;;;;5078428;28;20040;-80
2023/09/29 05:28:34;;;;;;;12.05;7.18;;;;;;;;;;5077891;28;20127;-79
2023/09/29 05:31:00;;;;;;;9.98;6.60;;;;;;;;;;5061955;28;20044;-79
2023/09/29 05:33:26;;;;;;;11.55;6.65;;;;;;;;;;5078961;28;20078;-80
2023/09/29 05:35:52;;;;;;;14.02;7.93;;;;;;;;;;5077839;28;20055;-79
2023/09/29 05:38:18;;;;;;;10.75;6.75;;;;;;;;;;5078396;28;20438;-79
2023/09/29 05:40:47;;;;;;;13.15;6.75;;;;;;;;;;5078071;28;20051;-79
2023/09/29 05:43:13;;;;;;;11.65;6.40;;;;;;;;;;5095904;28;20051;-80
2023/09/29 05:45:40;;;;;;;11.45;6.30;;;;;;;;;;5078235;28;20400;-80
2023/09/29 05:48:06;;;;;;;8.80;5.95;;;;;;;;;;5078687;28;20048;-79
2023/09/29 05:50:33;;;;;;;8.48;5.90;;;;;;;;;;5078192;28;20055;-79
2023/09/29 05:52:59;;;;;;;9.80;6.22;;;;;;;;;;5078595;28;20482;-80
2023/09/29 05:55:25;;;;;;;9.80;6.70;;;;;;;;;;5078323;28;20040;-79
2023/09/29 05:57:51;;;;;;;10.65;6.20;;;;;;;;;;5095947;28;20056;-80
2023/09/29 06:00:18;;;;;;;11.32;5.63;;;;;;;;;;5077371;28;20056;-79
2023/09/29 06:02:44;;;;;;;9.02;5.60;;;;;;;;;;5077662;28;20047;-80
2023/09/29 06:05:11;;;;;;;11.23;5.30;;;;;;;;;;5077547;28;20495;-80
2023/09/29 06:07:37;;;;;;;8.43;5.75;;;;;;;;;;5078354;28;20048;-80
2023/09/29 06:10:04;;;;;;;10.45;5.63;;;;;;;;;;5095311;28;20087;-79
2023/09/29 06:12:30;;;;;;;6.97;4.88;;;;;;;;;;5061540;28;20051;-79
2023/09/29 06:14:56;;;;;;;10.35;5.32;;;;;;;;;;5060622;28;20127;-78
2023/09/29 06:17:22;;;;;;;7.35;4.57;;;;;;;;;;5095168;28;20044;-79
2023/09/29 06:19:49;;;;;;;8.00;5.10;;;;;;;;;;5077077;28;20499;-79
2023/09/29 06:22:15;;;;;;;8.75;4.20;;;;;;;;;;5078079;28;20188;-79
2023/09/29 06:24:44;;;;;;;5.50;4.20;;;;;;;;;;5077096;28;20084;-79
2023/09/29 06:27:13;;;;;;;5.22;3.83;;;;;;;;;;5095057;28;20052;-79
2023/09/29 06:29:40;;;;;;;5.00;3.42;;;;;;;;;;5077137;28;20047;-78
2023/09/29 06:32:08;;;;;;;5.18;3.20;;;;;;;;;;5077720;28;20048;-79
2023/09/29 06:34:34;;;;;;;8.35;3.88;;;;;;;;;;5076762;28;20048;-79
2023/09/29 06:37:01;;;;;;;6.75;3.35;;;;;;;;;;5076995;28;20105;-78
2023/09/29 06:39:27;;;;;;;6.72;3.05;;;;;;;;;;5095463;28;20163;-79
2023/09/29 06:41:53;;;;;;;6.05;3.70;;;;;;;;;;5077462;28;20047;-79
2023/09/29 06:44:19;;;;;;;6.55;2.97;;;;;;;;;;5059822;28;20063;-79
2023/09/29 06:46:45;;;;;;;6.20;3.20;;;;;;;;;;5076486;28;20106;-79
2023/09/29 06:49:12;;;;;;;4.78;3.25;;;;;;;;;;5076574;28;20484;-79
2023/09/29 06:51:38;;;;;;;5.85;3.10;;;;;;;;;;5060071;28;20139;-79
2023/09/29 06:54:04;;;;;;;6.57;3.22;;;;;;;;;;5076588;28;20476;-79
2023/09/29 06:56:30;;;;;;;5.85;2.95;;;;;;;;;;5076658;28;20158;-78
2023/09/29 06:58:56;;;;;;;6.43;3.10;;;;;;;;;;5076511;28;20090;-79
2023/09/29 07:01:22;;;;;;;6.25;2.90;;;;;;;;;;5094379;28;20044;-79
2023/09/29 07:03:49;;;;;;;5.70;3.22;;;;;;;;;;5077123;28;20468;-78
2023/09/29 07:06:16;;;;;;;6.15;3.10;;;;;;;;;;5076554;28;20130;-79
2023/09/29 07:08:42;;;;;;;5.90;2.65;;;;;;;;;;5076178;28;20048;-79
2023/09/29 07:11:08;;;;;;;8.15;2.80;;;;;;;;;;5076077;28;20396;-79
2023/09/29 07:13:34;;;;;;;7.80;3.33;;;;;;;;;;5094185;28;20055;-78
2023/09/29 07:16:00;;;;;;;6.18;3.15;;;;;;;;;;5094997;28;20094;-78
2023/09/29 07:18:26;;;;;;;6.00;3.10;;;;;;;;;;5076305;28;20039;-79
2023/09/29 07:20:53;;;;;;;5.18;3.05;;;;;;;;;;5076207;28;20391;-78
2023/09/29 07:23:22;;;;;;;4.50;2.50;;;;;;;;;;5076233;28;20063;-78
2023/09/29 07:25:49;;;;;;;3.85;2.13;;;;;;;;;;5059608;28;20131;-78
2023/09/29 07:28:22;;;;;;;4.10;2.50;;;;;;;;;;5076021;28;20105;-79
2023/09/29 07:30:50;;;;;;;6.25;2.63;;;;;;;;;;5076488;28;20040;-79
2023/09/29 07:33:16;;;;;;;4.07;2.55;;;;;;;;;;5094229;28;20052;-78
2023/09/29 07:35:46;;;;;;;4.93;2.65;;;;;;;;;;5076591;28;20083;-78
2023/09/29 07:38:12;;;;;;;5.45;2.85;;;;;;;;;;5075748;28;20055;-78
2023/09/29 07:40:38;;;;;;;4.72;3.40;;;;;;;;;;5094208;28;20514;-78
2023/09/29 07:43:05;;;;;;;5.63;3.05;;;;;;;;;;5076811;28;20056;-78
2023/09/29 07:45:32;;;;;;;6.80;2.90;;;;;;;;;;5075627;28;20077;-78
2023/09/29 07:47:58;;;;;;;4.72;3.60;;;;;;;;;;5075991;28;20056;-79
2023/09/29 07:50:25;;;;;;;5.93;2.85;;;;;;;;;;5075984;28;20106;-79
2023/09/29 07:52:51;;;;;;;6.35;3.28;;;;;;;;;;5076105;28;20048;-79
2023/09/29 07:55:17;;;;;;;5.35;3.03;;;;;;;;;;5075698;28;20089;-79
2023/09/29 07:57:43;;;;;;;4.00;2.70;;;;;;;;;;5075908;28;20464;-78
2023/09/29 08:00:10;;;;;;;4.68;2.53;;;;;;;;;;5076108;28;20055;-79
2023/09/29 08:02:36;;;;;;;3.95;2.42;;;;;;;;;;5094146;28;20040;-79
2023/09/29 08:05:03;;;;;;;3.42;2.78;;;;;;;;;;5075768;28;20131;-78
2023/09/29 08:07:29;;;;;;;7.22;3.03;;;;;;;;;;5094164;28;20143;-79
2023/09/29 08:09:55;;;;;;;3.20;2.03;;;;;;;;;;5075700;28;20044;-78
2023/09/29 08:12:21;;;;;;;5.47;2.22;;;;;;;;;;5076556;28;20048;-78
2023/09/29 08:14:47;;;;;;;8.18;2.55;;;;;;;;;;5093463;28;20144;-79
2023/09/29 08:17:14;;;;;;;3.00;2.58;;;;;;;;;;5075393;28;20541;-78
2023/09/29 08:19:40;;;;;;;4.00;2.58;;;;;;;;;;5075346;28;20112;-78
2023/09/29 08:22:06;;;;;;;4.40;2.45;;;;;;;;;;5076031;28;20130;-78
2023/09/29 08:24:32;;;;;;;4.45;2.10;;;;;;;;;;5059143;28;20051;-78
2023/09/29 08:27:00;;;;;;;2.60;1.98;;;;;;;;;;5075547;28;20484;-78
2023/09/29 08:29:26;;;;;;;3.00;2.13;;;;;;;;;;5093348;28;20623;-78
2023/09/29 08:31:58;;;;;;;5.18;1.92;;;;;;;;;;5075541;28;20063;-78
2023/09/29 08:34:24;;;;;;;5.10;2.28;;;;;;;;;;5059569;28;20144;-78
2023/09/29 08:36:52;;;;;;;3.30;2.25;;;;;;;;;;5093306;28;20050;-78
2023/09/29 08:39:18;;;;;;;4.97;2.53;;;;;;;;;;5075246;28;20484;-78
2023/09/29 08:41:56;;;;;;;5.00;2.58;;;;;;;;;;5093830;28;20044;-79
2023/09/29 08:44:27;;;;;;;4.75;2.30;;;;;;;;;;5075753;28;20127;-79
2023/09/29 08:46:53;;;;;;;2.72;2.45;;;;;;;;;;5075673;28;20056;-78
2023/09/29 08:49:20;;;;;;;5.40;2.50;;;;;;;;;;5075343;28;20067;-78
2023/09/29 08:51:46;;;;;;;5.45;2.20;;;;;;;;;;5075391;28;20048;-78
2023/09/29 08:54:14;;;;;;;3.72;2.25;;;;;;;;;;5075774;28;20447;-78
2023/09/29 08:56:41;;;;;;;3.85;1.88;;;;;;;;;;5076393;28;20044;-78
2023/09/29 08:59:07;;;;;;;6.22;2.63;;;;;;;;;;5062102;28;20635;-78
2023/09/29 09:01:33;;;;;;;5.35;1.85;;;;;;;;;;5078842;28;20036;-78
2023/09/29 09:03:59;;;;;;;8.48;2.10;;;;;;;;;;5078525;28;20052;-78
2023/09/29 09:06:26;;;;;;;5.57;2.50;;;;;;;;;;5078741;28;20044;-78
2023/09/29 09:08:53;;;;;;;4.20;2.55;;;;;;;;;;5078426;28;20056;-78
2023/09/29 09:11:19;;;;;;;5.50;2.20;;;;;;;;;;5078731;28;20060;-78
2023/09/29 09:13:58;;;;;;;5.25;2.10;;;;;;;;;;5096374;28;20131;-78
2023/09/29 09:16:25;;;;;;;4.35;1.90;;;;;;;;;;5079007;28;20059;-78
2023/09/29 09:18:51;;;;;;;5.53;2.55;;;;;;;;;;5078520;28;20123;-78
2023/09/29 09:21:17;;;;;;;2.50;1.98;;;;;;;;;;5078089;28;20056;-78
2023/09/29 09:23:44;;;;;;;3.42;2.00;;;;;;;;;;5079287;28;20059;-78
2023/09/29 09:26:16;;;;;;;3.28;2.13;;;;;;;;;;5096012;28;20516;-78
2023/09/29 09:28:43;;;;;;;2.70;2.00;;;;;;;;;;5062118;28;20051;-78
2023/09/29 09:31:10;;;;;;;3.33;2.08;;;;;;;;;;5078374;28;20055;-78
2023/09/29 09:33:36;;;;;;;6.35;1.60;;;;;;;;;;5078205;28;20036;-78
2023/09/29 09:36:09;;;;;;;4.35;1.85;;;;;;;;;;5078170;28;20040;-78
2023/09/29 09:38:35;;;;;;;3.00;1.70;;;;;;;;;;5078839;28;20051;-78
2023/09/29 09:41:02;;;;;;;4.03;1.70;;;;;;;;;;5078096;28;20051;-78
2023/09/29 09:43:29;;;;;;;2.75;1.80;;;;;;;;;;5077906;28;20044;-78
2023/09/29 09:46:03;;;;;;;4.15;1.48;;;;;;;;;;5078000;28;20060;-78
2023/09/29 09:48:35;;;;;;;2.28;1.52;;;;;;;;;;5078052;28;20070;-78
2023/09/29 09:51:03;;;;;;;3.70;1.38;;;;;;;;;;5078235;28;20044;-78
2023/09/29 09:53:31;;;;;;;3.13;1.95;;;;;;;;;;5078203;28;20089;-78
2023/09/29 09:56:01;;;;;;;3.40;1.88;;;;;;;;;;5077801;28;20079;-78
2023/09/29 09:58:28;;;;;;;4.22;1.95;;;;;;;;;;5077463;28;20054;-78
2023/09/29 10:00:55;;;;;;;3.90;1.80;;;;;;;;;;5077733;28;20430;-78
2023/09/29 10:03:22;;;;;;;3.42;1.67;;;;;;;;;;5095499;28;20059;-78
2023/09/29 10:05:52;;;;;;;3.25;1.70;;;;;;;;;;5095596;28;20061;-78
2023/09/29 10:08:25;;;;;;;7.00;2.10;;;;;;;;;;5078269;28;20055;-78
2023/09/29 10:10:51;;;;;;;2.75;1.60;;;;;;;;;;5077549;28;20454;-78
2023/09/29 10:13:17;;;;;;;3.03;1.80;;;;;;;;;;5077757;28;20052;-79
2023/09/29 10:15:43;;;;;;;4.00;1.67;;;;;;;;;;5077109;28;20044;-78
2023/09/29 10:18:19;;;;;;;5.13;1.88;;;;;;;;;;5061104;28;20500;-78
2023/09/29 10:21:00;;;;;;;4.60;1.98;;;;;;;;;;5077071;28;20059;-78
2023/09/29 10:23:26;;;;;;;3.03;1.70;;;;;;;;;;5078205;28;20062;-79
2023/09/29 10:26:02;;;;;;;3.63;1.88;;;;;;;;;;5077092;28;20043;-78
2023/09/29 10:28:36;;;;;;;3.05;1.85;;;;;;;;;;5077110;28;20543;-79
2023/09/29 10:31:13;;;;;;;3.00;1.50;;;;;;;;;;5078025;28;20056;-78
2023/09/29 10:33:50;;;;;;;2.88;1.85;;;;;;;;;;5077895;28;20087;-78
2023/09/29 10:36:18;;;;;;;2.90;1.58;;;;;;;;;;5095034;28;20077;-78
2023/09/29 10:38:44;;;;;;;4.15;2.42;;;;;;;;;;5060055;28;20112;-78
2023/09/29 10:41:10;;;;;;;5.72;2.47;;;;;;;;;;5077195;28;20052;-78
2023/09/29 10:43:36;;;;;;;4.78;2.35;;;;;;;;;;5076909;28;20046;-78
2023/09/29 10:46:09;;;;;;;3.08;2.10;;;;;;;;;;5061144;28;20051;-78
2023/09/29 10:48:48;;;;;;;5.55;2.17;;;;;;;;;;5077057;28;20054;-79
2023/09/29 10:51:24;;;;;;;2.72;1.83;;;;;;;;;;5076468;28;20079;-78
2023/09/29 10:53:51;;;;;;;7.75;2.28;;;;;;;;;;5077463;28;20055;-78
2023/09/29 10:56:26;;;;;;;5.30;2.45;;;;;;;;;;5076979;28;20054;-78
2023/09/29 10:58:54;;;;;;;8.98;2.35;;;;;;;;;;5076895;28;20044;-78
2023/09/29 11:01:32;;;;;;;4.07;2.17;;;;;;;;;;5076896;28;20052;-78
2023/09/29 11:03:59;;;;;;;3.13;2.08;;;;;;;;;;5076298;28;20097;-78
2023/09/29 11:06:25;;;;;;;5.68;1.98;;;;;;;;;;5076522;28;20052;-78
2023/09/29 11:08:52;;;;;;;3.75;2.70;;;;;;;;;;5094384;28;20048;-79
2023/09/29 11:11:18;;;;;;;3.00;1.88;;;;;;;;;;5077005;28;20560;-78
2023/09/29 11:13:52;;;;;;;4.60;2.55;;;;;;;;;;5076350;28;20435;-78
2023/09/29 11:16:18;;;;;;;5.05;2.40;;;;;;;;;;5094351;28;20044;-79
2023/09/29 11:18:45;;;;;;;4.35;2.58;;;;;;;;;;5093755;28;20048;-79
2023/09/29 11:21:12;;;;;;;5.50;2.35;;;;;;;;;;5075381;28;20523;-78
2023/09/29 11:23:43;;;;;;;5.30;3.17;;;;;;;;;;5076246;28;20079;-78
2023/09/29 11:26:10;;;;;;;4.20;2.08;;;;;;;;;;5075846;28;20056;-78
2023/09/29 11:28:41;;;;;;;7.68;2.65;;;;;;;;;;5076135;28;20139;-78
2023/09/29 11:31:09;;;;;;;4.35;2.80;;;;;;;;;;5076131;28;20051;-78
2023/09/29 11:33:36;;;;;;;5.13;2.72;;;;;;;;;;5043839;28;20410;-78
2023/09/29 11:36:11;;;;;;;4.28;2.50;;;;;;;;;;5059900;28;20082;-78
2023/09/29 11:38:37;;;;;;;3.97;2.22;;;;;;;;;;5076085;28;20044;-78
2023/09/29 11:41:05;;;;;;;4.30;2.10;;;;;;;;;;5076112;28;20486;-78
2023/09/29 11:43:33;;;;;;;4.45;3.10;;;;;;;;;;5093790;28;20044;-78
2023/09/29 11:45:59;;;;;;;3.20;2.33;;;;;;;;;;5059248;28;20056;-78
2023/09/29 11:48:25;;;;;;;3.00;2.35;;;;;;;;;;5093775;28;20051;-79
2023/09/29 11:50:52;;;;;;;5.35;2.55;;;;;;;;;;5076022;28;20181;-78
2023/09/29 11:53:19;;;;;;;4.82;1.92;;;;;;;;;;5076520;28;20376;-79
2023/09/29 11:55:45;;;;;;;3.35;2.10;;;;;;;;;;5075625;28;20058;-78
2023/09/29 11:58:11;;;;;;;4.20;2.63;;;;;;;;;;5076701;28;20142;-78
2023/09/29 12:00:39;;;;;;;5.13;3.13;;;;;;;;;;5093601;28;20051;-78
2023/09/29 12:03:06;;;;;;;2.83;2.42;;;;;;;;;;5059592;28;20048;-79
2023/09/29 12:05:36;;;;;;;6.00;3.28;;;;;;;;;;5058781;28;20044;-79
2023/09/29 12:08:02;;;;;;;3.63;2.40;;;;;;;;;;5076556;28;20391;-78
2023/09/29 12:10:29;;;;;;;4.18;2.95;;;;;;;;;;5075742;28;20094;-78
2023/09/29 12:12:55;;;;;;;8.00;3.05;;;;;;;;;;5076062;28;20051;-78
2023/09/29 12:15:21;;;;;;;4.72;2.60;;;;;;;;;;5076366;28;20047;-79
2023/09/29 12:17:47;;;;;;;5.05;2.85;;;;;;;;;;5075624;28;20059;-79
2023/09/29 12:20:14;;;;;;;4.65;2.60;;;;;;;;;;5058847;28;20045;-79
2023/09/29 12:22:45;;;;;;;4.85;2.80;;;;;;;;;;5093494;28;20056;-79
2023/09/29 12:25:14;;;;;;;6.45;3.17;;;;;;;;;;5093828;28;20393;-79
2023/09/29 12:27:44;;;;;;;4.57;3.70;;;;;;;;;;5076128;28;20440;-79
2023/09/29 12:30:12;;;;;;;4.40;3.22;;;;;;;;;;5076181;28;20055;-79
2023/09/29 12:32:42;;;;;;;5.35;3.72;;;;;;;;;;5080007;28;20048;-79
2023/09/29 12:35:15;;;;;;;4.35;3.75;;;;;;;;;;5079268;28;20040;-79
2023/09/29 12:37:44;;;;;;;4.85;3.38;;;;;;;;;;5063093;28;20055;-78
2023/09/29 12:40:14;;;;;;;5.38;2.70;;;;;;;;;;5097197;28;20044;-79
2023/09/29 12:42:46;;;;;;;5.20;2.83;;;;;;;;;;5080067;28;20048;-80
2023/09/29 12:45:13;;;;;;;4.70;2.80;;;;;;;;;;5097730;28;20164;-79
2023/09/29 12:47:39;;;;;;;3.83;2.90;;;;;;;;;;5097301;28;20056;-79
2023/09/29 12:50:07;;;;;;;4.45;3.42;;;;;;;;;;5063348;28;20052;-79
2023/09/29 12:52:33;;;;;;;7.53;3.83;;;;;;;;;;5079334;28;20048;-79
2023/09/29 12:54:59;;;;;;;4.25;3.95;;;;;;;;;;5078929;28;20040;-79
2023/09/29 12:57:25;;;;;;;4.38;3.97;;;;;;;;;;5078977;28;20138;-79
2023/09/29 12:59:51;;;;;;;3.97;3.60;;;;;;;;;;5079739;28;20052;-80
2023/09/29 13:02:20;;;;;;;5.65;4.15;;;;;;;;;;5062045;28;20403;-79
2023/09/29 13:04:46;;;;;;;6.30;3.88;;;;;;;;;;5062437;28;20044;-79
2023/09/29 13:07:13;;;;;;;4.85;3.45;;;;;;;;;;5079157;28;20040;-79
2023/09/29 13:09:40;;;;;;;3.88;3.58;;;;;;;;;;5079072;28;20056;-79
2023/09/29 13:12:06;;;;;;;4.53;3.58;;;;;;;;;;5079527;28;20048;-79
2023/09/29 13:14:32;;;;;;;4.10;3.50;;;;;;;;;;5078663;28;20478;-79
2023/09/29 13:16:58;;;;;;;4.65;3.58;;;;;;;;;;5079487;28;20178;-79
2023/09/29 13:19:25;;;;;;;3.22;3.03;;;;;;;;;;5062315;28;20051;-80
2023/09/29 13:21:54;;;;;;;4.43;3.40;;;;;;;;;;5078161;28;20067;-79
2023/09/29 13:24:20;;;;;;;3.90;3.60;;;;;;;;;;5078499;28;20064;-79
2023/09/29 13:26:47;;;;;;;5.28;3.70;;;;;;;;;;5078785;28;20125;-80
2023/09/29 13:29:15;;;;;;;2.08;0.55;;;;;;;;;;5096292;28;20154;-81
2023/09/29 13:31:41;;;;;;;0.70;0.20;;;;;;;;;;5078319;28;20122;-80
2023/09/29 13:34:07;;;;;;;0.40;0.10;;;;;;;;;;5078258;28;20048;-80
2023/09/29 13:36:35;;;;;;;0.43;0.10;;;;;;;;;;5061969;28;20380;-81
2023/09/29 13:39:01;;;;;;;1.13;0.10;;;;;;;;;;5061689;28;20121;-80
2023/09/29 13:41:29;;;;;;;0.20;0.10;;;;;;;;;;5079084;28;20044;-80
2023/09/29 13:43:58;;;;;;;0.47;0.10;;;;;;;;;;5061188;28;20117;-81
2023/09/29 13:46:24;;;;;;;0.47;0.10;;;;;;;;;;5078922;28;20051;-81
2023/09/29 13:48:50;;;;;;;1.45;0.10;;;;;;;;;;5078867;28;20135;-80
2023/09/29 13:51:17;;;;;;;0.20;0.10;;;;;;;;;;5078065;28;20051;-81
2023/09/29 13:53:43;;;;;;;0.32;0.10;;;;;;;;;;5078012;28;20044;-80
2023/09/29 13:56:09;;;;;;;1.20;0.10;;;;;;;;;;5077636;28;20051;-80
2023/09/29 13:58:36;;;;;;;0.30;0.10;;;;;;;;;;5061180;28;20062;-81
2023/09/29 14:01:02;;;;;;;0.30;0.05;;;;;;;;;;5077846;28;20518;-80
2023/09/29 14:03:28;;;;;;;0.63;0.10;;;;;;;;;;5078057;28;20044;-81
2023/09/29 14:05:54;;;;;;;0.95;0.25;;;;;;;;;;5077763;28;20059;-80
2023/09/29 14:08:21;;;;;;;0.55;0.10;;;;;;;;;;5077697;28;20055;-80
2023/09/29 14:10:47;;;;;;;0.52;0.10;;;;;;;;;;5061929;28;20051;-80
2023/09/29 14:13:14;;;;;;;0.25;0.10;;;;;;;;;;5077574;28;20043;-80
2023/09/29 14:15:40;;;;;;;0.45;0.00;;;;;;;;;;5077658;28;20048;-81
2023/09/29 14:18:06;;;;;;;0.32;0.10;;;;;;;;;;5060634;28;20044;-80
2023/09/29 14:20:35;;;;;;;0.95;0.10;;;;;;;;;;5077773;28;20048;-80
2023/09/29 14:23:08;;;;;;;0.35;0.10;;;;;;;;;;5077685;28;20147;-80
2023/09/29 14:25:34;;;;;;;0.30;0.10;;;;;;;;;;5078223;28;20055;-80
2023/09/29 14:28:01;;;;;;;1.17;0.20;;;;;;;;;;5060704;28;20078;-80
2023/09/29 14:30:28;;;;;;;0.52;0.10;;;;;;;;;;5061373;28;20059;-80
2023/09/29 14:32:54;;;;;;;1.45;0.10;;;;;;;;;;5077482;28;20055;-80
2023/09/29 14:35:20;;;;;;;1.55;0.20;;;;;;;;;;5076904;28;20086;-80
2023/09/29 14:37:48;;;;;;;0.60;0.17;;;;;;;;;;5077413;28;20054;-80